createdAt,value
2023-08-02T00:02:07.010Z,1.13
2023-08-02T00:04:34.157Z,1.00
2023-08-02T00:07:04.673Z,1.10
2023-08-02T00:09:33.810Z,1.25
2023-08-02T00:12:04.204Z,0.95
2023-08-02T00:14:31.180Z,1.23
2023-08-02T00:16:58.639Z,1.10
2023-08-02T00:19:26.179Z,1.00
2023-08-02T00:21:53.278Z,1.10
2023-08-02T00:24:20.368Z,1.10
2023-08-02T00:26:47.698Z,1.00
2023-08-02T00:29:14.941Z,1.10
2023-08-02T00:31:41.968Z,1.05
2023-08-02T00:34:09.008Z,1.25
2023-08-02T00:36:36.222Z,1.10
2023-08-02T00:39:03.285Z,1.20
2023-08-02T00:41:31.694Z,1.00
2023-08-02T00:43:58.725Z,1.30
2023-08-02T00:46:25.990Z,1.23
2023-08-02T00:48:53.160Z,1.20
2023-08-02T00:51:23.773Z,0.88
2023-08-02T00:53:51.064Z,0.90
2023-08-02T00:56:19.031Z,1.15
2023-08-02T00:58:46.072Z,1.20
2023-08-02T01:01:13.238Z,0.90
2023-08-02T01:03:47.572Z,1.25
2023-08-02T01:06:37.765Z,1.13
2023-08-02T01:09:18.102Z,1.02
2023-08-02T01:12:04.017Z,1.02
2023-08-02T01:14:43.094Z,0.90
2023-08-02T01:17:14.957Z,1.27
2023-08-02T01:19:46.609Z,0.90
2023-08-02T01:22:13.614Z,1.17
2023-08-02T01:24:40.983Z,1.20
2023-08-02T01:27:20.633Z,1.00
2023-08-02T01:29:52.168Z,1.17
2023-08-02T01:32:24.505Z,1.30
2023-08-02T01:34:52.612Z,0.90
2023-08-02T01:37:19.924Z,1.00
2023-08-02T01:39:46.912Z,1.17
2023-08-02T01:42:15.691Z,1.00
2023-08-02T01:44:44.255Z,1.27
2023-08-02T01:47:11.472Z,1.02
2023-08-02T01:49:38.517Z,1.20
2023-08-02T01:52:05.946Z,1.20
2023-08-02T01:54:32.960Z,1.10
2023-08-02T01:56:59.898Z,1.10
2023-08-02T01:59:26.889Z,1.20
2023-08-02T02:01:53.852Z,1.20
2023-08-02T02:04:20.781Z,0.90
2023-08-02T02:06:51.206Z,1.10
2023-08-02T02:09:18.281Z,1.20
2023-08-02T02:11:45.313Z,1.10
2023-08-02T02:14:12.407Z,1.10
2023-08-02T02:16:39.577Z,1.10
2023-08-02T02:19:06.671Z,1.00
2023-08-02T02:21:33.629Z,0.93
2023-08-02T02:24:00.655Z,1.10
2023-08-02T02:26:27.993Z,1.10
2023-08-02T02:28:55.146Z,1.00
2023-08-02T02:31:22.212Z,1.10
2023-08-02T02:33:49.272Z,0.80
2023-08-02T02:36:16.247Z,1.10
2023-08-02T02:38:43.196Z,0.98
2023-08-02T02:41:10.206Z,1.17
2023-08-02T02:43:37.188Z,1.10
2023-08-02T02:46:04.187Z,1.15
2023-08-02T02:48:32.393Z,1.20
2023-08-02T02:50:59.435Z,1.00
2023-08-02T02:53:26.558Z,0.95
2023-08-02T02:55:53.528Z,1.00
2023-08-02T02:58:20.692Z,1.10
2023-08-02T03:00:47.720Z,0.90
2023-08-02T03:03:15.054Z,1.08
2023-08-02T03:05:42.293Z,0.90
2023-08-02T03:08:09.278Z,1.10
2023-08-02T03:10:36.272Z,1.00
2023-08-02T03:13:03.275Z,1.13
2023-08-02T03:15:30.279Z,1.00
2023-08-02T03:17:57.293Z,1.00
2023-08-02T03:20:24.307Z,1.00
2023-08-02T03:22:51.315Z,0.90
2023-08-02T03:25:18.455Z,1.20
2023-08-02T03:27:45.405Z,1.10
2023-08-02T03:30:12.425Z,1.20
2023-08-02T03:32:39.518Z,1.00
2023-08-02T03:35:07.183Z,1.00
2023-08-02T03:37:34.201Z,1.20
2023-08-02T03:40:01.154Z,1.10
2023-08-02T03:42:28.452Z,1.02
2023-08-02T03:44:55.427Z,1.08
2023-08-02T03:47:22.511Z,1.10
2023-08-02T03:49:49.542Z,1.08
2023-08-02T03:52:16.624Z,0.93
2023-08-02T03:54:43.709Z,1.00
2023-08-02T03:57:10.695Z,1.00
2023-08-02T03:59:37.696Z,1.10
2023-08-02T04:02:04.928Z,0.95
2023-08-02T04:04:32.012Z,1.08
2023-08-02T04:06:59.004Z,0.93
2023-08-02T04:09:25.974Z,1.20
2023-08-02T04:11:53.275Z,1.25
2023-08-02T04:14:20.293Z,1.15
2023-08-02T04:16:47.364Z,1.05
2023-08-02T04:19:14.413Z,1.30
2023-08-02T04:21:41.354Z,1.35
2023-08-02T04:24:08.337Z,1.30
2023-08-02T04:26:35.405Z,1.15
2023-08-02T04:29:02.404Z,1.00
2023-08-02T04:31:29.469Z,1.00
2023-08-02T04:33:57.730Z,1.27
2023-08-02T04:36:24.900Z,0.98
2023-08-02T04:38:55.183Z,1.15
2023-08-02T04:41:22.164Z,1.05
2023-08-02T04:43:49.274Z,0.98
2023-08-02T04:46:16.401Z,1.33
2023-08-02T04:48:43.536Z,1.00
2023-08-02T04:51:12.077Z,0.90
2023-08-02T04:53:39.156Z,1.05
2023-08-02T04:56:12.443Z,1.00
2023-08-02T04:58:42.114Z,0.98
2023-08-02T05:01:09.272Z,0.95
2023-08-02T05:03:37.277Z,0.98
2023-08-02T05:06:07.125Z,1.10
2023-08-02T05:08:37.637Z,1.10
2023-08-02T05:11:08.763Z,0.88
2023-08-02T05:13:37.975Z,1.05
2023-08-02T05:16:06.398Z,1.08
2023-08-02T05:18:33.494Z,1.00
2023-08-02T05:21:00.510Z,1.13
2023-08-02T05:23:27.527Z,1.00
2023-08-02T05:25:56.987Z,1.00
2023-08-02T05:28:24.040Z,0.90
2023-08-02T05:30:51.040Z,1.00
2023-08-02T05:33:18.085Z,1.13
2023-08-02T05:35:45.076Z,1.10
2023-08-02T05:38:12.133Z,1.20
2023-08-02T05:40:39.159Z,1.10
2023-08-02T05:43:07.665Z,0.98
2023-08-02T05:45:35.355Z,0.90
2023-08-02T05:48:02.879Z,1.25
2023-08-02T05:50:30.926Z,1.20
2023-08-02T05:52:57.901Z,1.00
2023-08-02T05:55:25.009Z,1.10
2023-08-02T05:57:53.377Z,1.00
2023-08-02T06:00:20.372Z,1.00
2023-08-02T06:02:47.502Z,1.17
2023-08-02T06:05:14.628Z,1.15
2023-08-02T06:07:41.588Z,1.23
2023-08-02T06:10:09.173Z,1.10
2023-08-02T06:12:36.137Z,0.98
2023-08-02T06:15:03.372Z,1.10
2023-08-02T06:17:32.181Z,1.08
2023-08-02T06:20:00.593Z,1.20
2023-08-02T06:22:27.794Z,1.50
2023-08-02T06:24:54.793Z,1.40
2023-08-02T06:27:21.911Z,1.20
2023-08-02T06:29:48.998Z,1.17
2023-08-02T06:32:16.497Z,1.20
2023-08-02T06:34:43.504Z,1.70
2023-08-02T06:37:10.718Z,1.27
2023-08-02T06:39:37.660Z,1.35
2023-08-02T06:42:04.903Z,1.40
2023-08-02T06:44:32.853Z,1.20
2023-08-02T06:46:59.982Z,1.38
2023-08-02T06:49:29.436Z,1.27
2023-08-02T06:51:59.255Z,1.30
2023-08-02T06:54:27.783Z,1.30
2023-08-02T06:56:55.231Z,1.63
2023-08-02T06:59:25.178Z,1.33
2023-08-02T07:01:54.334Z,1.15
2023-08-02T07:04:21.450Z,1.65
2023-08-02T07:06:48.683Z,1.38
2023-08-02T07:09:16.125Z,1.42
2023-08-02T07:11:43.245Z,1.30
2023-08-02T07:14:10.322Z,1.30
2023-08-02T07:16:37.427Z,1.58
2023-08-02T07:19:04.931Z,1.73
2023-08-02T07:21:58.814Z,1.63
2023-08-02T07:24:25.858Z,1.80
2023-08-02T07:26:52.700Z,1.70
2023-08-02T07:29:19.604Z,1.70
2023-08-02T07:31:46.524Z,1.75
2023-08-02T07:34:13.623Z,2.00
2023-08-02T07:36:40.616Z,1.58
2023-08-02T07:39:07.744Z,1.75
2023-08-02T07:41:35.286Z,1.67
2023-08-02T07:44:02.337Z,1.80
2023-08-02T07:46:29.356Z,1.95
2023-08-02T07:48:56.574Z,2.08
2023-08-02T07:51:23.521Z,1.75
2023-08-02T07:53:51.132Z,1.48
2023-08-02T07:56:18.209Z,1.60
2023-08-02T07:58:48.026Z,2.10
2023-08-02T08:01:14.955Z,1.65
2023-08-02T08:03:41.964Z,1.60
2023-08-02T08:06:17.635Z,1.58
2023-08-02T08:08:44.782Z,1.50
2023-08-02T08:11:12.138Z,1.70
2023-08-02T08:13:39.426Z,1.52
2023-08-02T08:16:06.482Z,1.45
2023-08-02T08:18:34.113Z,1.60
2023-08-02T08:21:03.066Z,1.42
2023-08-02T08:23:31.532Z,1.58
2023-08-02T08:25:58.514Z,1.70
2023-08-02T08:28:25.431Z,1.58
2023-08-02T08:31:03.875Z,1.27
2023-08-02T08:33:33.891Z,1.50
2023-08-02T08:36:00.862Z,1.40
2023-08-02T08:38:28.013Z,1.30
2023-08-02T08:40:57.182Z,1.23
2023-08-02T08:43:29.013Z,1.25
2023-08-02T08:45:58.412Z,1.38
2023-08-02T08:48:27.915Z,1.30
2023-08-02T08:50:57.373Z,1.60
2023-08-02T08:53:33.494Z,1.55
2023-08-02T08:56:02.247Z,1.90
2023-08-02T08:58:30.375Z,1.40
2023-08-02T09:00:59.440Z,1.50
2023-08-02T09:03:27.181Z,1.77
2023-08-02T09:05:55.008Z,1.42
2023-08-02T09:08:21.986Z,1.33
2023-08-02T09:10:48.956Z,1.50
2023-08-02T09:13:27.414Z,1.70
2023-08-02T09:16:18.219Z,1.42
2023-08-02T09:18:48.632Z,2.45
2023-08-02T09:21:23.492Z,1.58
2023-08-02T09:23:59.568Z,1.25
2023-08-02T09:26:26.649Z,1.95
2023-08-02T09:29:08.817Z,1.25
2023-08-02T09:31:38.068Z,2.10
2023-08-02T09:34:05.438Z,1.60
2023-08-02T09:36:37.403Z,1.80
2023-08-02T09:39:16.347Z,1.83
2023-08-02T09:41:58.921Z,1.73
2023-08-02T09:44:28.923Z,1.60
2023-08-02T09:46:55.871Z,2.08
2023-08-02T09:49:23.787Z,1.70
2023-08-02T09:51:50.901Z,1.88
2023-08-02T09:54:18.076Z,1.98
2023-08-02T09:56:45.293Z,1.73
2023-08-02T09:59:13.646Z,1.60
2023-08-02T10:01:41.903Z,1.70
2023-08-02T10:04:11.878Z,1.77
2023-08-02T10:07:01.185Z,1.77
2023-08-02T10:09:34.738Z,2.00
2023-08-02T10:12:18.816Z,2.50
2023-08-02T10:14:47.510Z,2.00
2023-08-02T10:17:15.065Z,2.17
2023-08-02T10:19:42.592Z,1.90
2023-08-02T10:22:12.579Z,1.70
2023-08-02T10:24:42.081Z,1.67
2023-08-02T10:27:09.730Z,1.42
2023-08-02T10:29:38.969Z,1.75
2023-08-02T10:32:18.513Z,1.48
2023-08-02T10:34:51.768Z,1.75
2023-08-02T10:37:21.432Z,1.65
2023-08-02T10:39:52.330Z,1.90
2023-08-02T10:42:32.009Z,1.45
2023-08-02T10:44:58.863Z,1.52
2023-08-02T10:47:34.597Z,1.42
2023-08-02T10:50:04.825Z,1.50
2023-08-02T10:52:40.174Z,1.83
2023-08-02T10:55:14.476Z,1.35
2023-08-02T10:58:06.972Z,1.55
2023-08-02T11:00:38.928Z,1.45
2023-08-02T11:03:06.098Z,1.15
2023-08-02T11:05:50.864Z,1.20
2023-08-02T11:08:17.821Z,1.38
2023-08-02T11:10:55.671Z,1.20
2023-08-02T11:13:39.388Z,1.02
2023-08-02T11:16:07.677Z,1.08
2023-08-02T11:18:36.180Z,1.48
2023-08-02T11:21:14.784Z,1.00
2023-08-02T11:26:16.100Z,1.17
2023-08-02T11:28:53.999Z,0.82
2023-08-02T11:31:26.154Z,0.95
2023-08-02T11:33:53.892Z,0.75
2023-08-02T11:36:21.373Z,1.17
2023-08-02T11:38:49.142Z,1.30
2023-08-02T11:41:23.086Z,1.15
2023-08-02T11:43:50.243Z,0.93
2023-08-02T11:46:28.253Z,0.95
2023-08-02T11:49:06.493Z,0.98
2023-08-02T11:51:33.544Z,1.10
2023-08-02T11:54:01.148Z,1.00
2023-08-02T11:56:29.608Z,0.90
2023-08-02T11:58:57.568Z,0.70
2023-08-02T12:01:25.629Z,0.70
2023-08-02T12:04:07.345Z,0.82
2023-08-02T12:06:50.236Z,1.00
2023-08-02T12:09:19.203Z,0.75
2023-08-02T12:11:53.753Z,0.70
2023-08-02T12:14:31.058Z,0.80
2023-08-02T12:16:58.221Z,0.80
2023-08-02T12:19:40.399Z,0.90
2023-08-02T12:22:08.323Z,0.70
2023-08-02T12:24:36.547Z,0.65
2023-08-02T12:27:14.452Z,0.80
2023-08-02T12:29:42.596Z,0.75
2023-08-02T12:32:11.489Z,0.80
2023-08-02T12:34:38.823Z,0.70
2023-08-02T12:37:06.376Z,0.77
2023-08-02T12:39:33.460Z,0.73
2023-08-02T12:42:00.485Z,0.80
2023-08-02T12:44:27.560Z,0.60
2023-08-02T12:46:54.697Z,0.52
2023-08-02T12:49:21.652Z,0.50
2023-08-02T12:51:48.785Z,0.75
2023-08-02T12:54:16.128Z,0.65
2023-08-02T12:56:43.549Z,0.50
2023-08-02T12:59:11.613Z,0.75
2023-08-02T13:01:39.094Z,0.80
2023-08-02T13:04:06.161Z,0.77
2023-08-02T13:06:36.035Z,0.65
2023-08-02T13:09:03.607Z,0.90
2023-08-02T13:11:30.708Z,0.70
2023-08-02T13:13:57.811Z,1.85
2023-08-02T13:16:24.798Z,0.70
2023-08-02T13:18:51.761Z,0.95
2023-08-02T13:21:20.938Z,0.80
2023-08-02T13:23:48.514Z,0.60
2023-08-02T13:26:16.896Z,1.10
2023-08-02T13:28:43.825Z,0.73
2023-08-02T13:31:10.950Z,0.90
2023-08-02T13:33:38.030Z,1.65
2023-08-02T13:36:04.966Z,1.60
2023-08-02T13:38:32.005Z,1.38
2023-08-02T13:41:00.768Z,1.67
2023-08-02T13:43:28.089Z,1.15
2023-08-02T13:45:55.225Z,1.58
2023-08-02T13:48:22.244Z,1.25
2023-08-02T13:50:50.004Z,1.30
2023-08-02T13:53:18.245Z,1.35
2023-08-02T13:55:45.267Z,1.30
2023-08-02T13:58:12.179Z,1.30
2023-08-02T14:00:39.174Z,1.40
2023-08-02T14:03:06.227Z,1.33
2023-08-02T14:05:33.301Z,1.48
2023-08-02T14:08:00.394Z,1.30
2023-08-02T14:10:27.398Z,1.20
2023-08-02T14:12:54.542Z,1.10
2023-08-02T14:15:21.618Z,1.13
2023-08-02T14:17:49.110Z,1.40
2023-08-02T14:20:16.281Z,1.27
2023-08-02T14:22:43.278Z,1.23
2023-08-02T14:25:11.855Z,1.52
2023-08-02T14:27:38.900Z,1.33
2023-08-02T14:30:06.965Z,1.52
2023-08-02T14:32:34.013Z,1.33
2023-08-02T14:35:00.971Z,1.30
2023-08-02T14:37:28.015Z,1.40
2023-08-02T14:39:56.123Z,1.35
2023-08-02T14:42:24.318Z,1.60
2023-08-02T14:44:51.378Z,1.63
2023-08-02T14:47:18.347Z,1.60
2023-08-02T14:49:45.312Z,1.50
2023-08-02T14:52:14.749Z,1.42
2023-08-02T14:54:42.180Z,1.70
2023-08-02T14:57:09.115Z,1.40
2023-08-02T14:59:36.085Z,1.58
2023-08-02T15:02:04.183Z,1.40
2023-08-02T15:04:31.173Z,1.50
2023-08-02T15:06:58.144Z,1.52
2023-08-02T15:09:25.422Z,1.25
2023-08-02T15:11:52.374Z,2.00
2023-08-02T15:14:19.369Z,1.30
2023-08-02T15:16:46.466Z,1.35
2023-08-02T15:19:14.235Z,1.40
2023-08-02T15:21:41.721Z,1.58
2023-08-02T15:24:12.718Z,1.55
2023-08-02T15:26:40.175Z,1.30
2023-08-02T15:29:07.212Z,1.45
2023-08-02T15:31:34.180Z,1.52
2023-08-02T15:34:01.223Z,1.35
2023-08-02T15:36:29.801Z,1.60
2023-08-02T15:38:56.802Z,1.60
2023-08-02T15:41:23.810Z,1.50
2023-08-02T15:43:50.803Z,1.42
2023-08-02T15:46:19.644Z,1.42
2023-08-02T15:48:46.651Z,1.27
2023-08-02T15:51:13.680Z,1.50
2023-08-02T15:53:40.646Z,1.63
2023-08-02T15:56:07.629Z,1.65
2023-08-02T15:58:34.843Z,1.50
2023-08-02T16:01:01.906Z,1.33
2023-08-02T16:03:28.945Z,1.60
2023-08-02T16:05:55.942Z,1.42
2023-08-02T16:08:22.984Z,1.77
2023-08-02T16:10:51.001Z,1.50
2023-08-02T16:13:17.974Z,1.63
2023-08-02T16:15:45.075Z,1.88
2023-08-02T16:18:12.471Z,1.58
2023-08-02T16:20:40.023Z,1.75
2023-08-02T16:23:07.020Z,1.42
2023-08-02T16:25:34.081Z,1.35
2023-08-02T16:28:01.091Z,1.30
2023-08-02T16:30:28.737Z,1.40
2023-08-02T16:32:55.915Z,1.30
2023-08-02T16:35:22.940Z,1.70
2023-08-02T16:37:49.961Z,1.75
2023-08-02T16:40:17.288Z,1.45
2023-08-02T16:42:45.256Z,1.70
2023-08-02T16:45:12.258Z,1.30
2023-08-02T16:47:40.728Z,1.20
2023-08-02T16:50:12.080Z,1.33
2023-08-02T16:52:39.320Z,1.55
2023-08-02T16:55:07.820Z,1.15
2023-08-02T16:57:36.866Z,1.10
2023-08-02T17:00:08.621Z,1.00
2023-08-02T17:02:35.804Z,1.30
2023-08-02T17:05:02.832Z,1.10
2023-08-02T17:07:29.856Z,1.00
2023-08-02T17:09:56.926Z,1.00
2023-08-02T17:12:24.012Z,1.20
2023-08-02T17:14:51.234Z,1.27
2023-08-02T17:17:20.534Z,1.20
2023-08-02T17:19:47.558Z,1.05
2023-08-02T17:22:17.453Z,1.13
2023-08-02T17:24:44.417Z,1.20
2023-08-02T17:27:11.566Z,1.27
2023-08-02T17:29:38.559Z,1.02
2023-08-02T17:32:06.123Z,1.00
2023-08-02T17:34:33.155Z,1.10
2023-08-02T17:37:00.066Z,0.90
2023-08-02T17:39:26.976Z,0.98
2023-08-02T17:41:54.863Z,1.20
2023-08-02T17:44:21.834Z,1.10
2023-08-02T17:46:51.475Z,1.00
2023-08-02T17:49:18.385Z,0.90
2023-08-02T17:51:45.451Z,0.93
2023-08-02T17:54:12.566Z,1.15
2023-08-02T17:56:39.484Z,0.88
2023-08-02T17:59:07.634Z,0.95
2023-08-02T18:01:34.823Z,0.98
2023-08-02T18:04:01.756Z,0.98
2023-08-02T18:06:30.747Z,1.00
2023-08-02T18:08:57.831Z,1.17
2023-08-02T18:11:24.938Z,1.20
2023-08-02T18:13:51.975Z,0.93
2023-08-02T18:16:19.293Z,1.10
2023-08-02T18:18:46.436Z,1.05
2023-08-02T18:21:13.504Z,0.90
2023-08-02T18:23:43.176Z,0.90
2023-08-02T18:26:14.980Z,1.02
2023-08-02T18:28:42.607Z,0.90
2023-08-02T18:31:09.977Z,1.10
2023-08-02T18:33:37.227Z,1.00
2023-08-02T18:36:13.456Z,0.70
2023-08-02T18:38:42.276Z,0.80
2023-08-02T18:41:25.341Z,0.90
2023-08-02T18:43:53.361Z,0.80
2023-08-02T18:46:22.360Z,0.88
2023-08-02T18:48:49.857Z,1.00
2023-08-02T18:51:18.183Z,0.90
2023-08-02T18:53:49.125Z,0.93
2023-08-02T18:56:17.546Z,0.68
2023-08-02T18:58:46.309Z,0.88
2023-08-02T19:01:13.336Z,1.00
2023-08-02T19:03:41.076Z,0.85
2023-08-02T19:06:09.023Z,0.70
2023-08-02T19:08:43.877Z,0.98
2023-08-02T19:11:24.963Z,1.08
2023-08-02T19:13:53.467Z,1.00
2023-08-02T19:16:21.293Z,1.20
2023-08-02T19:18:49.626Z,1.20
2023-08-02T19:21:17.015Z,1.10
2023-08-02T19:23:45.851Z,1.10
2023-08-02T19:26:17.356Z,0.98
2023-08-02T19:28:45.877Z,1.00
2023-08-02T19:31:15.042Z,0.90
2023-08-02T19:33:45.453Z,1.05
2023-08-02T19:36:21.479Z,1.13
2023-08-02T19:38:50.374Z,0.90
2023-08-02T19:41:27.111Z,0.88
2023-08-02T19:43:57.420Z,1.00
2023-08-02T19:46:26.413Z,0.98
2023-08-02T19:48:53.583Z,1.05
2023-08-02T19:51:20.855Z,1.10
2023-08-02T19:53:48.112Z,1.10
2023-08-02T19:56:21.244Z,0.98
2023-08-02T19:58:48.308Z,0.85
2023-08-02T20:01:15.469Z,1.08
2023-08-02T20:03:42.716Z,1.00
2023-08-02T20:06:11.614Z,1.00
2023-08-02T20:08:39.248Z,1.00
2023-08-02T20:11:08.198Z,1.00
2023-08-02T20:13:43.465Z,1.10
2023-08-02T20:16:23.222Z,0.93
2023-08-02T20:18:54.836Z,1.17
2023-08-02T20:21:24.363Z,0.80
2023-08-02T20:24:03.618Z,1.00
2023-08-02T20:26:31.511Z,0.90
2023-08-02T20:28:58.993Z,0.88
2023-08-02T20:31:34.555Z,0.90
2023-08-02T20:34:01.618Z,0.90
2023-08-02T20:36:28.526Z,1.10
2023-08-02T20:38:56.658Z,0.85
2023-08-02T20:41:28.438Z,0.75
2023-08-02T20:43:57.986Z,0.90
2023-08-02T20:46:30.619Z,0.82
2023-08-02T20:49:03.104Z,0.90
2023-08-02T20:51:31.919Z,0.70
2023-08-02T20:54:00.307Z,0.95
2023-08-02T20:56:30.489Z,0.85
2023-08-02T20:58:57.748Z,0.80
2023-08-02T21:01:24.782Z,0.85
2023-08-02T21:03:58.003Z,0.90
2023-08-02T21:06:25.059Z,0.80
2023-08-02T21:08:52.821Z,0.80
2023-08-02T21:11:20.135Z,0.80
2023-08-02T21:13:47.064Z,0.90
2023-08-02T21:16:15.529Z,1.13
2023-08-02T21:18:44.243Z,0.95
2023-08-02T21:21:13.998Z,0.80
2023-08-02T21:23:42.636Z,0.85
2023-08-02T21:26:17.430Z,0.75
2023-08-02T21:28:44.701Z,0.73
2023-08-02T21:31:17.141Z,0.77
2023-08-02T21:33:45.134Z,0.90
2023-08-02T21:36:26.806Z,0.82
2023-08-02T21:38:54.096Z,0.77
2023-08-02T21:41:21.208Z,0.90
2023-08-02T21:43:50.871Z,0.90
2023-08-02T21:46:19.132Z,0.80
2023-08-02T21:48:52.030Z,0.70
2023-08-02T21:51:23.301Z,0.90
2023-08-02T21:53:53.497Z,1.08
2023-08-02T21:56:25.208Z,1.05
2023-08-02T21:59:03.950Z,0.77
2023-08-02T22:01:32.349Z,0.80
2023-08-02T22:04:00.090Z,0.90
2023-08-02T22:06:30.102Z,1.02
2023-08-02T22:09:00.360Z,0.82
2023-08-02T22:11:27.757Z,0.88
2023-08-02T22:13:56.053Z,0.88
2023-08-02T22:16:23.378Z,0.80
2023-08-02T22:18:50.634Z,0.80
2023-08-02T22:21:21.943Z,1.00
2023-08-02T22:23:49.882Z,1.02
2023-08-02T22:26:17.204Z,0.80
2023-08-02T22:28:44.205Z,0.60
2023-08-02T22:31:11.225Z,0.88
2023-08-02T22:33:38.332Z,0.77
2023-08-02T22:36:05.732Z,0.75
2023-08-02T22:38:46.574Z,0.70
2023-08-02T22:41:14.895Z,0.70
2023-08-02T22:43:43.008Z,0.80
2023-08-02T22:46:10.111Z,0.80
2023-08-02T22:51:07.234Z,0.90
2023-08-02T22:53:34.906Z,1.00
2023-08-02T22:56:04.580Z,1.00
2023-08-02T22:58:33.907Z,0.80
2023-08-02T23:01:10.312Z,0.90
2023-08-02T23:03:45.070Z,0.85
2023-08-02T23:06:17.847Z,0.90
2023-08-02T23:08:46.291Z,0.90
2023-08-02T23:11:22.708Z,0.90
2023-08-02T23:13:51.939Z,1.00
2023-08-02T23:16:25.143Z,1.00
2023-08-02T23:18:57.671Z,1.10
2023-08-02T23:21:28.677Z,0.65
2023-08-02T23:23:55.761Z,0.75
2023-08-02T23:26:30.852Z,0.80
2023-08-02T23:29:01.978Z,1.02
2023-08-02T23:31:29.866Z,0.70
2023-08-02T23:33:57.533Z,0.90
2023-08-02T23:36:24.588Z,0.60
2023-08-02T23:38:51.859Z,0.70
2023-08-02T23:41:19.330Z,0.80
2023-08-02T23:43:46.329Z,0.68
2023-08-02T23:46:13.391Z,1.00
2023-08-02T23:48:40.394Z,0.57
2023-08-02T23:51:07.346Z,0.60
2023-08-02T23:53:34.265Z,0.60
2023-08-02T23:56:01.194Z,0.75
2023-08-02T23:58:28.110Z,0.80
